Time;durP1;ratioP1;P1;durP2;ratioP2;P2;SDS_P1;SDS_P2;PMS_P1;PMS_P2;Temp;Humidity;BMP_temperature;BMP_pressure;BME280_temperature;BME280_humidity;BME280_pressure;Samples;Min_cycle;Max_cycle;Signal;HPM_P1;HPM_P2
2024/03/05 00:00:12;;;;;;;68.53;41.95;;;9.10;99.90;;;;;;4971081;28;20430;-79
2024/03/05 00:02:43;;;;;;;82.63;47.92;;;9.10;99.90;;;;;;4971555;28;20033;-79
2024/03/05 00:05:13;;;;;;;81.80;47.13;;;9.20;99.90;;;;;;4971384;28;20031;-79
2024/03/05 00:07:39;;;;;;;75.28;43.88;;;9.10;99.90;;;;;;4972860;28;20051;-79
2024/03/05 00:10:07;;;;;;;68.10;42.50;;;9.10;99.90;;;;;;4970916;28;20038;-79
2024/03/05 00:12:33;;;;;;;72.57;44.13;;;9.10;99.90;;;;;;4972756;28;20022;-79
2024/03/05 00:14:59;;;;;;;69.53;40.15;;;9.10;99.90;;;;;;4972742;28;20278;-79
2024/03/05 00:17:25;;;;;;;71.43;41.35;;;9.00;99.90;;;;;;4971248;28;20023;-79
2024/03/05 00:19:51;;;;;;;64.30;39.60;;;9.00;99.90;;;;;;4970603;28;20037;-79
2024/03/05 00:22:18;;;;;;;69.75;40.53;;;8.90;99.90;;;;;;4971304;28;20105;-79
2024/03/05 00:24:43;;;;;;;69.38;41.75;;;8.90;99.90;;;;;;4972393;28;20027;-80
2024/03/05 00:27:09;;;;;;;71.60;41.67;;;8.80;99.90;;;;;;4971265;28;20281;-79
2024/03/05 00:29:36;;;;;;;65.80;41.22;;;8.80;99.90;;;;;;4970461;28;20034;-80
2024/03/05 00:32:01;;;;;;;63.55;38.70;;;8.70;99.90;;;;;;4971080;28;20023;-79
2024/03/05 00:34:27;;;;;;;70.57;43.22;;;8.70;99.90;;;;;;4972349;28;20041;-80
2024/03/05 00:36:52;;;;;;;64.40;38.97;;;8.70;99.90;;;;;;4972215;28;20082;-80
2024/03/05 00:39:19;;;;;;;61.25;37.65;;;8.70;99.90;;;;;;4970232;28;20569;-80
2024/03/05 00:41:45;;;;;;;66.88;40.03;;;8.70;99.90;;;;;;4972110;28;20085;-80
2024/03/05 00:44:11;;;;;;;61.50;37.13;;;8.70;99.90;;;;;;4972061;28;20097;-80
2024/03/05 00:46:37;;;;;;;65.53;38.33;;;8.70;99.90;;;;;;4970448;28;20018;-80
2024/03/05 00:49:02;;;;;;;70.07;37.85;;;8.60;99.90;;;;;;4970360;28;20210;-80
2024/03/05 00:51:28;;;;;;;64.80;38.95;;;8.60;99.90;;;;;;4970807;28;20027;-80
2024/03/05 00:53:54;;;;;;;71.85;40.85;;;8.60;99.90;;;;;;4970451;28;20027;-80
2024/03/05 00:56:20;;;;;;;65.97;38.20;;;8.60;99.90;;;;;;4970279;28;20477;-79
2024/03/05 00:58:45;;;;;;;64.10;39.00;;;8.50;99.90;;;;;;4970577;28;20026;-79
2024/03/05 01:01:11;;;;;;;62.85;36.05;;;8.50;99.90;;;;;;4986120;28;20126;-79
2024/03/05 01:03:37;;;;;;;71.82;40.83;;;8.40;99.90;;;;;;4970511;28;20027;-80
2024/03/05 01:06:03;;;;;;;63.47;37.92;;;8.40;99.90;;;;;;4970258;28;20037;-80
2024/03/05 01:08:30;;;;;;;66.07;36.90;;;8.40;99.90;;;;;;4969879;28;20114;-80
2024/03/05 01:10:56;;;;;;;55.80;36.30;;;8.30;99.90;;;;;;4969667;28;20027;-80
2024/03/05 01:13:22;;;;;;;62.38;37.08;;;8.30;99.90;;;;;;4971420;28;20165;-80
2024/03/05 01:15:48;;;;;;;65.88;38.40;;;8.30;99.90;;;;;;4986063;28;20027;-79
2024/03/05 01:18:13;;;;;;;62.90;35.50;;;8.20;99.90;;;;;;4971247;28;20027;-79
2024/03/05 01:20:41;;;;;;;68.40;39.15;;;8.20;99.90;;;;;;4969483;28;20041;-80
2024/03/05 01:23:10;;;;;;;68.88;36.63;;;8.20;99.90;;;;;;4969789;28;20022;-79
2024/03/05 01:25:38;;;;;;;57.58;33.58;;;8.10;99.90;;;;;;4969684;28;20082;-80
2024/03/05 01:28:07;;;;;;;67.35;37.30;;;8.10;99.90;;;;;;4969860;28;20027;-80
2024/03/05 01:30:33;;;;;;;60.22;36.10;;;8.10;99.90;;;;;;4969564;28;20117;-80
2024/03/05 01:33:03;;;;;;;58.00;35.42;;;8.10;99.90;;;;;;4971297;28;20049;-79
2024/03/05 01:35:30;;;;;;;58.72;33.15;;;8.10;99.90;;;;;;4971064;28;20023;-80
2024/03/05 01:37:56;;;;;;;58.72;35.05;;;8.10;99.90;;;;;;4969675;28;20035;-79
2024/03/05 01:40:21;;;;;;;54.88;33.25;;;8.10;99.90;;;;;;4969115;28;20026;-79
2024/03/05 01:42:47;;;;;;;61.22;34.42;;;8.10;99.90;;;;;;4969574;28;20051;-79
2024/03/05 01:45:13;;;;;;;55.15;33.17;;;8.00;99.90;;;;;;4969345;28;20019;-80
2024/03/05 01:47:38;;;;;;;56.95;34.78;;;8.00;99.90;;;;;;4969546;28;20066;-80
2024/03/05 01:50:06;;;;;;;54.63;31.92;;;8.00;99.90;;;;;;4970394;28;20405;-79
2024/03/05 01:52:32;;;;;;;52.55;31.48;;;8.00;99.90;;;;;;4971343;28;20318;-79
2024/03/05 01:55:05;;;;;;;58.30;32.45;;;7.90;99.90;;;;;;4970817;28;20026;-79
2024/03/05 01:57:31;;;;;;;48.85;29.73;;;7.90;99.90;;;;;;4969603;28;20058;-79
2024/03/05 01:59:57;;;;;;;56.20;32.70;;;7.90;99.90;;;;;;4969035;28;20436;-79
2024/03/05 02:02:23;;;;;;;48.38;29.15;;;7.90;99.90;;;;;;4969567;28;20026;-79
2024/03/05 02:04:51;;;;;;;51.00;31.48;;;7.80;99.90;;;;;;4985773;28;20034;-79
2024/03/05 02:07:18;;;;;;;46.15;28.02;;;7.80;99.90;;;;;;4969607;28;20030;-79
2024/03/05 02:09:44;;;;;;;54.15;30.08;;;7.90;99.90;;;;;;4969107;28;20029;-79
2024/03/05 02:12:10;;;;;;;56.58;30.95;;;7.80;99.90;;;;;;4970691;28;20027;-79
2024/03/05 02:14:35;;;;;;;45.47;28.77;;;7.80;99.90;;;;;;4969725;28;20023;-80
2024/03/05 02:17:01;;;;;;;52.58;28.98;;;7.80;99.90;;;;;;4970351;28;20051;-79
2024/03/05 02:19:28;;;;;;;53.42;30.85;;;7.80;99.90;;;;;;4969705;28;20109;-79
2024/03/05 02:22:06;;;;;;;48.60;29.42;;;7.70;99.90;;;;;;4970541;28;20311;-79
2024/03/05 02:24:31;;;;;;;45.63;27.45;;;7.70;99.90;;;;;;4969034;28;20026;-79
2024/03/05 02:27:00;;;;;;;46.80;27.77;;;7.70;99.90;;;;;;4969029;28;20030;-79
2024/03/05 02:29:26;;;;;;;42.13;26.77;;;7.70;99.90;;;;;;4969879;28;20126;-79
2024/03/05 02:31:52;;;;;;;58.60;30.48;;;7.60;99.90;;;;;;4969489;28;20498;-79
2024/03/05 02:34:17;;;;;;;45.65;27.63;;;7.60;99.90;;;;;;4969205;28;20027;-79
2024/03/05 02:36:43;;;;;;;46.00;26.88;;;7.70;99.90;;;;;;4970297;28;20482;-79
2024/03/05 02:39:09;;;;;;;45.38;25.60;;;7.70;99.90;;;;;;4969532;28;20023;-79
2024/03/05 02:41:35;;;;;;;46.63;26.77;;;7.60;99.90;;;;;;4970509;28;20478;-80
2024/03/05 02:44:01;;;;;;;48.80;26.10;;;7.60;99.90;;;;;;4968778;28;20118;-80
2024/03/05 02:46:26;;;;;;;47.30;27.63;;;7.70;99.90;;;;;;4970293;28;20102;-79
2024/03/05 02:48:53;;;;;;;50.85;28.40;;;7.60;99.90;;;;;;4968078;28;20019;-79
2024/03/05 02:51:18;;;;;;;50.05;28.58;;;7.60;99.90;;;;;;4968922;28;20117;-79
2024/03/05 02:53:43;;;;;;;47.15;27.10;;;7.60;99.90;;;;;;4969003;28;20656;-79
2024/03/05 02:56:10;;;;;;;42.58;26.17;;;7.60;99.90;;;;;;4970321;28;20106;-79
2024/03/05 02:58:35;;;;;;;39.85;24.88;;;7.60;99.90;;;;;;4970682;28;20433;-79
2024/03/05 03:01:02;;;;;;;41.25;26.08;;;7.60;99.90;;;;;;4971965;28;20023;-79
2024/03/05 03:03:27;;;;;;;47.05;25.85;;;7.60;99.90;;;;;;4973642;28;20019;-79
2024/03/05 03:05:53;;;;;;;50.72;27.48;;;7.60;99.90;;;;;;4972298;28;20081;-79
2024/03/05 03:08:18;;;;;;;46.13;25.88;;;7.60;99.90;;;;;;4972113;28;20050;-79
2024/03/05 03:10:44;;;;;;;44.47;25.23;;;7.60;99.90;;;;;;4972185;28;20066;-79
2024/03/05 03:13:09;;;;;;;50.08;27.33;;;7.50;99.90;;;;;;4988558;28;20065;-79
2024/03/05 03:15:35;;;;;;;44.97;26.83;;;7.50;99.90;;;;;;4972215;28;20062;-79
2024/03/05 03:18:00;;;;;;;40.47;25.50;;;7.60;99.90;;;;;;4972468;28;20039;-79
2024/03/05 03:20:26;;;;;;;46.70;26.20;;;7.50;99.90;;;;;;4971807;28;20320;-80
2024/03/05 03:22:52;;;;;;;42.92;25.98;;;7.50;99.90;;;;;;4972039;28;20497;-79
2024/03/05 03:25:17;;;;;;;42.15;26.13;;;7.50;99.90;;;;;;4973344;28;20093;-79
2024/03/05 03:27:43;;;;;;;44.65;26.83;;;7.50;99.90;;;;;;4972012;28;20409;-80
2024/03/05 03:30:14;;;;;;;44.38;26.10;;;7.50;99.90;;;;;;4973041;28;20105;-79
2024/03/05 03:32:39;;;;;;;45.70;26.00;;;7.40;99.90;;;;;;4971753;28;20059;-79
2024/03/05 03:35:06;;;;;;;39.22;24.05;;;7.40;99.90;;;;;;4973301;28;20534;-80
2024/03/05 03:37:32;;;;;;;47.30;27.17;;;7.40;99.90;;;;;;4972924;28;20023;-79
2024/03/05 03:39:58;;;;;;;44.97;26.80;;;7.40;99.90;;;;;;4972989;28;20038;-79
2024/03/05 03:42:24;;;;;;;41.28;24.17;;;7.30;99.90;;;;;;4971688;28;20081;-79
2024/03/05 03:44:51;;;;;;;39.35;24.38;;;7.40;99.90;;;;;;4988032;28;20015;-79
2024/03/05 03:47:16;;;;;;;48.38;24.45;;;7.40;99.90;;;;;;4971719;28;20023;-79
2024/03/05 03:49:48;;;;;;;44.05;26.00;;;7.30;99.90;;;;;;4971419;28;20038;-80
2024/03/05 03:52:15;;;;;;;41.50;24.13;;;7.30;99.90;;;;;;4971666;28;20493;-80
2024/03/05 03:54:41;;;;;;;44.00;25.20;;;7.30;99.90;;;;;;4971741;28;20023;-80
2024/03/05 03:57:07;;;;;;;48.22;26.50;;;7.30;99.90;;;;;;4971812;28;20392;-80
2024/03/05 03:59:33;;;;;;;44.60;26.27;;;7.30;99.90;;;;;;4987649;28;20034;-80
2024/03/05 04:01:59;;;;;;;45.38;25.45;;;7.30;99.90;;;;;;4971436;28;20027;-80
2024/03/05 04:04:24;;;;;;;37.88;23.60;;;7.30;99.90;;;;;;4988040;28;20034;-80
2024/03/05 04:06:50;;;;;;;44.65;24.02;;;7.30;99.90;;;;;;4973036;28;20469;-80
2024/03/05 04:09:15;;;;;;;50.00;26.73;;;7.30;99.90;;;;;;4970796;28;20205;-80
2024/03/05 04:11:41;;;;;;;38.50;23.23;;;7.20;99.90;;;;;;4971435;28;20027;-80
2024/03/05 04:14:07;;;;;;;36.70;22.85;;;7.20;99.90;;;;;;4972763;28;20030;-80
2024/03/05 04:16:33;;;;;;;41.47;24.40;;;7.20;99.90;;;;;;4972683;28;20034;-80
2024/03/05 04:18:58;;;;;;;43.10;24.13;;;7.20;99.90;;;;;;4970665;28;20038;-80
2024/03/05 04:21:25;;;;;;;47.92;24.45;;;7.20;99.90;;;;;;4970972;28;20398;-80
2024/03/05 04:23:52;;;;;;;40.10;24.13;;;7.20;99.90;;;;;;4972659;28;20102;-80
2024/03/05 04:26:23;;;;;;;46.53;25.65;;;7.20;99.90;;;;;;4972496;28;20023;-80
2024/03/05 04:28:54;;;;;;;38.40;22.75;;;7.20;99.90;;;;;;4972385;28;20450;-80
2024/03/05 04:31:22;;;;;;;39.00;23.45;;;7.20;99.90;;;;;;4972199;28;20375;-80
2024/03/05 04:33:48;;;;;;;42.13;23.00;;;7.20;99.90;;;;;;4970895;28;20034;-80
2024/03/05 04:36:15;;;;;;;42.88;25.10;;;7.20;99.90;;;;;;4970865;28;20220;-80
2024/03/05 04:38:41;;;;;;;45.00;24.92;;;7.20;99.90;;;;;;4972389;28;20162;-80
2024/03/05 04:41:07;;;;;;;38.75;23.33;;;7.20;99.90;;;;;;4970288;28;20350;-80
2024/03/05 04:43:32;;;;;;;46.00;25.33;;;7.20;99.90;;;;;;4972230;28;20250;-80
2024/03/05 04:45:59;;;;;;;40.88;23.52;;;7.20;99.90;;;;;;4970864;28;20438;-79
2024/03/05 04:48:25;;;;;;;47.33;25.15;;;7.20;99.90;;;;;;4986867;28;20418;-80
2024/03/05 04:50:51;;;;;;;41.95;24.10;;;7.20;99.90;;;;;;4970181;28;20026;-80
2024/03/05 04:53:18;;;;;;;41.03;23.65;;;7.20;99.90;;;;;;4972294;28;20137;-80
2024/03/05 04:55:43;;;;;;;41.97;24.35;;;7.20;99.90;;;;;;4970808;28;20055;-80
2024/03/05 04:58:09;;;;;;;45.72;25.90;;;7.20;99.90;;;;;;4986699;28;20062;-80
2024/03/05 05:00:34;;;;;;;45.10;24.55;;;7.20;99.90;;;;;;4971150;28;20114;-80
2024/03/05 05:03:00;;;;;;;41.95;24.02;;;7.20;99.90;;;;;;4986670;28;20058;-80
2024/03/05 05:05:25;;;;;;;39.78;22.65;;;7.20;99.90;;;;;;4971581;28;20051;-80
2024/03/05 05:07:53;;;;;;;45.35;25.02;;;7.10;99.90;;;;;;4970244;28;20034;-80
2024/03/05 05:10:19;;;;;;;46.45;24.50;;;7.10;99.90;;;;;;4970016;28;20026;-80
2024/03/05 05:12:44;;;;;;;45.65;23.50;;;7.10;99.90;;;;;;4970004;28;20113;-80
2024/03/05 05:15:12;;;;;;;40.03;24.27;;;7.10;99.90;;;;;;4970200;28;20038;-80
2024/03/05 05:17:38;;;;;;;38.72;22.23;;;7.10;99.90;;;;;;4971929;28;20101;-80
2024/03/05 05:20:08;;;;;;;44.30;23.23;;;7.10;99.90;;;;;;4985390;28;20327;-80
2024/03/05 05:22:36;;;;;;;46.20;25.55;;;7.10;99.90;;;;;;4971080;28;20015;-80
2024/03/05 05:25:01;;;;;;;41.95;24.05;;;7.10;99.90;;;;;;4986279;28;20326;-80
2024/03/05 05:27:27;;;;;;;44.80;25.48;;;7.10;99.90;;;;;;4969987;28;20583;-79
2024/03/05 05:29:52;;;;;;;42.67;24.92;;;7.10;99.90;;;;;;4969167;28;20046;-80
2024/03/05 05:32:18;;;;;;;45.42;23.70;;;7.10;99.90;;;;;;4970069;28;20061;-79
2024/03/05 05:34:43;;;;;;;41.17;24.58;;;7.10;99.90;;;;;;4971411;28;20311;-80
2024/03/05 05:37:09;;;;;;;46.58;26.75;;;7.10;99.90;;;;;;4970046;28;20037;-80
2024/03/05 05:39:34;;;;;;;55.00;27.20;;;7.10;99.90;;;;;;4969599;28;20026;-79
2024/03/05 05:42:00;;;;;;;43.03;26.00;;;7.10;99.90;;;;;;4969920;28;20492;-80
2024/03/05 05:44:25;;;;;;;42.13;25.17;;;7.10;99.90;;;;;;4970992;28;20030;-79
2024/03/05 05:46:51;;;;;;;44.08;25.50;;;7.10;99.90;;;;;;4969452;28;20025;-80
2024/03/05 05:49:19;;;;;;;46.03;24.98;;;7.10;99.90;;;;;;4970563;28;20030;-79
2024/03/05 05:51:51;;;;;;;44.95;24.08;;;7.00;99.90;;;;;;4969493;28;20023;-79
2024/03/05 05:54:17;;;;;;;41.40;25.77;;;7.10;99.90;;;;;;4969534;28;20433;-80
2024/03/05 05:56:43;;;;;;;43.28;26.13;;;7.10;99.90;;;;;;4970541;28;20101;-79
2024/03/05 05:59:09;;;;;;;50.42;26.23;;;7.10;99.90;;;;;;4968762;28;20026;-79
2024/03/05 06:01:37;;;;;;;49.03;24.92;;;7.10;99.90;;;;;;4970257;28;20023;-80
2024/03/05 06:04:06;;;;;;;43.15;25.40;;;7.10;99.90;;;;;;4967820;28;20498;-80
2024/03/05 06:06:33;;;;;;;41.83;23.63;;;7.10;99.90;;;;;;4970523;28;20035;-80
2024/03/05 06:08:58;;;;;;;39.55;24.60;;;7.10;99.90;;;;;;4968875;28;20255;-80
2024/03/05 06:11:24;;;;;;;38.88;24.50;;;7.10;99.90;;;;;;4969207;28;20038;-80
2024/03/05 06:13:50;;;;;;;43.22;24.13;;;7.10;99.90;;;;;;4970329;28;20057;-80
2024/03/05 06:16:16;;;;;;;42.85;26.00;;;7.10;99.90;;;;;;4970665;28;20078;-80
2024/03/05 06:18:41;;;;;;;46.97;25.25;;;7.10;99.90;;;;;;4969094;28;20038;-79
2024/03/05 06:21:07;;;;;;;39.47;23.58;;;7.10;99.90;;;;;;4968917;28;20026;-80
2024/03/05 06:23:34;;;;;;;41.55;24.27;;;7.10;99.90;;;;;;4969249;28;20437;-80
2024/03/05 06:26:00;;;;;;;39.80;24.38;;;7.10;99.90;;;;;;4969137;28;20496;-80
2024/03/05 06:28:25;;;;;;;42.70;24.30;;;7.10;99.90;;;;;;4970258;28;20034;-80
2024/03/05 06:30:51;;;;;;;37.38;24.17;;;7.10;99.90;;;;;;4969966;28;20031;-80
2024/03/05 06:33:19;;;;;;;54.20;28.63;;;7.10;99.90;;;;;;4972451;28;20027;-80
2024/03/05 06:35:46;;;;;;;47.70;27.70;;;7.10;99.90;;;;;;4989241;28;20022;-80
2024/03/05 06:38:13;;;;;;;55.97;27.77;;;7.10;99.90;;;;;;4973077;28;20057;-80
2024/03/05 06:40:38;;;;;;;43.85;26.10;;;7.00;99.90;;;;;;4972595;28;20026;-80
2024/03/05 06:43:05;;;;;;;49.88;26.80;;;7.00;99.90;;;;;;4974672;28;20085;-79
2024/03/05 06:45:34;;;;;;;52.10;26.65;;;7.10;99.90;;;;;;4972818;28;20041;-79
2024/03/05 06:48:01;;;;;;;45.38;24.67;;;7.10;99.90;;;;;;4988971;28;20482;-80
2024/03/05 06:50:41;;;;;;;43.03;24.90;;;7.10;99.90;;;;;;4972416;28;20026;-80
2024/03/05 06:58:42;;;;;;;48.10;24.80;;;7.10;99.90;;;;;;4974142;28;20033;-80
2024/03/05 07:01:08;;;;;;;48.08;25.63;;;7.10;99.90;;;;;;4972227;28;20033;-80
2024/03/05 07:03:38;;;;;;;45.53;25.75;;;7.10;99.90;;;;;;4988755;28;20027;-80
2024/03/05 07:06:09;;;;;;;39.13;24.17;;;7.10;99.90;;;;;;4972516;28;20277;-81
2024/03/05 07:08:39;;;;;;;50.50;27.88;;;7.10;99.90;;;;;;4973676;28;20038;-80
2024/03/05 07:11:08;;;;;;;45.97;24.20;;;7.10;99.90;;;;;;4973457;28;20037;-82
2024/03/05 07:13:35;;;;;;;47.28;25.35;;;7.10;99.90;;;;;;4973841;28;20106;-81
2024/03/05 07:16:00;;;;;;;41.28;25.27;;;7.10;99.90;;;;;;4972387;28;20057;-80
2024/03/05 07:18:26;;;;;;;46.13;26.67;;;7.10;99.90;;;;;;4972357;28;20473;-80
2024/03/05 07:20:52;;;;;;;41.92;25.52;;;7.10;99.90;;;;;;4971857;28;20027;-81
2024/03/05 07:23:19;;;;;;;44.22;25.27;;;7.20;99.90;;;;;;4972505;28;20026;-81
2024/03/05 07:25:45;;;;;;;42.53;26.25;;;7.20;99.90;;;;;;4972312;28;20031;-81
2024/03/05 07:28:10;;;;;;;47.55;25.75;;;7.10;99.90;;;;;;4972252;28;20470;-81
2024/03/05 07:30:37;;;;;;;48.97;24.90;;;7.10;99.90;;;;;;4971658;28;20342;-81
2024/03/05 07:33:03;;;;;;;41.72;23.98;;;7.10;99.90;;;;;;4972073;28;20102;-81
2024/03/05 07:35:29;;;;;;;38.90;24.40;;;7.10;99.90;;;;;;4973758;28;20536;-80
2024/03/05 07:37:56;;;;;;;42.50;24.73;;;7.00;99.90;;;;;;4972255;28;20035;-81
2024/03/05 07:40:22;;;;;;;42.05;23.75;;;7.10;99.90;;;;;;4972065;28;20026;-80
2024/03/05 07:42:53;;;;;;;38.00;23.85;;;7.10;99.90;;;;;;4972353;28;20081;-80
2024/03/05 07:45:21;;;;;;;39.72;23.90;;;7.10;99.90;;;;;;4972651;28;20023;-81
2024/03/05 07:47:48;;;;;;;40.65;23.83;;;7.10;99.90;;;;;;4972247;28;20122;-80
2024/03/05 07:50:14;;;;;;;39.40;24.23;;;7.10;99.90;;;;;;4971859;28;20030;-80
2024/03/05 07:52:42;;;;;;;38.65;22.88;;;7.20;99.90;;;;;;4972415;28;20180;-80
2024/03/05 07:55:13;;;;;;;43.38;24.10;;;7.20;99.90;;;;;;4972451;28;20034;-80
2024/03/05 07:57:39;;;;;;;34.95;20.98;;;7.20;99.90;;;;;;4973863;28;20023;-81
2024/03/05 08:00:11;;;;;;;37.42;21.52;;;7.20;99.90;;;;;;4972147;28;20072;-81
2024/03/05 08:02:38;;;;;;;34.55;21.48;;;7.30;99.90;;;;;;4972604;28;20011;-81
2024/03/05 08:05:04;;;;;;;41.78;25.38;;;7.30;99.90;;;;;;4972544;28;20098;-80
2024/03/05 08:07:34;;;;;;;40.03;24.85;;;7.30;99.90;;;;;;4972535;28;20150;-80
2024/03/05 08:10:03;;;;;;;43.70;23.20;;;7.20;99.90;;;;;;4970979;28;20041;-81
2024/03/05 08:12:28;;;;;;;38.63;23.55;;;7.30;99.90;;;;;;4972428;28;20129;-81
2024/03/05 08:14:55;;;;;;;39.13;23.13;;;7.30;99.90;;;;;;4972397;28;20035;-81
2024/03/05 08:17:21;;;;;;;47.13;24.27;;;7.40;99.90;;;;;;4971189;28;20026;-81
2024/03/05 08:19:46;;;;;;;46.17;24.60;;;7.40;99.90;;;;;;4970413;28;20034;-81
2024/03/05 08:22:12;;;;;;;39.00;22.80;;;7.40;99.90;;;;;;4971118;28;20034;-81
2024/03/05 08:24:38;;;;;;;40.53;22.83;;;7.40;99.90;;;;;;4972452;28;20031;-81
2024/03/05 08:27:04;;;;;;;36.38;22.77;;;7.50;99.90;;;;;;4972414;28;20015;-81
2024/03/05 08:29:30;;;;;;;41.85;22.17;;;7.50;99.90;;;;;;4971141;28;20122;-81
2024/03/05 08:31:55;;;;;;;40.03;22.23;;;7.50;99.90;;;;;;4972625;28;20055;-81
2024/03/05 08:34:21;;;;;;;39.63;22.15;;;7.60;99.90;;;;;;4971084;28;20457;-81
2024/03/05 08:36:47;;;;;;;33.35;21.30;;;7.60;99.90;;;;;;4970780;28;20112;-81
2024/03/05 08:39:18;;;;;;;33.47;21.48;;;7.80;99.90;;;;;;4971708;28;20041;-81
2024/03/05 08:41:46;;;;;;;34.55;20.90;;;7.80;99.90;;;;;;4970529;28;20479;-81
2024/03/05 08:44:13;;;;;;;36.55;20.88;;;7.80;99.90;;;;;;4970768;28;20027;-81
2024/03/05 08:46:38;;;;;;;34.78;22.55;;;7.80;99.90;;;;;;4970548;28;20374;-81
2024/03/05 08:49:06;;;;;;;34.30;21.00;;;7.90;99.90;;;;;;4971414;28;20027;-81
2024/03/05 08:51:34;;;;;;;39.38;22.88;;;7.90;99.90;;;;;;4970842;28;20073;-81
2024/03/05 08:53:59;;;;;;;35.30;21.08;;;7.90;99.90;;;;;;4970554;28;20114;-81
2024/03/05 08:56:25;;;;;;;35.65;20.73;;;7.90;99.90;;;;;;4971835;28;20098;-81
2024/03/05 08:58:50;;;;;;;38.30;22.20;;;8.00;99.90;;;;;;4986544;28;20022;-81
2024/03/05 09:01:16;;;;;;;35.85;20.60;;;8.00;99.90;;;;;;4971641;28;20054;-81
2024/03/05 09:03:41;;;;;;;36.25;21.60;;;8.00;99.90;;;;;;4985753;28;20034;-80
2024/03/05 09:06:07;;;;;;;38.20;21.70;;;8.00;99.90;;;;;;4971597;28;20019;-81
2024/03/05 09:08:32;;;;;;;36.75;21.20;;;8.00;99.90;;;;;;4970446;28;20030;-81
2024/03/05 09:10:58;;;;;;;34.10;20.02;;;8.00;99.90;;;;;;4971238;28;20038;-81
2024/03/05 09:13:23;;;;;;;30.67;20.45;;;8.00;99.90;;;;;;4970146;28;20478;-80
2024/03/05 09:15:49;;;;;;;32.13;19.45;;;8.00;99.90;;;;;;4971575;28;20405;-81
2024/03/05 09:18:16;;;;;;;39.03;21.50;;;8.00;99.90;;;;;;4969917;28;20073;-81
2024/03/05 09:20:42;;;;;;;37.90;21.83;;;8.00;99.90;;;;;;4970668;28;20501;-81
2024/03/05 09:23:08;;;;;;;43.13;22.40;;;7.90;99.90;;;;;;4971358;28;20027;-81
2024/03/05 09:25:36;;;;;;;33.88;19.35;;;7.90;99.90;;;;;;4971411;28;20109;-80
2024/03/05 09:28:01;;;;;;;31.75;19.40;;;7.90;99.90;;;;;;4986261;28;20031;-81
2024/03/05 09:30:28;;;;;;;34.53;21.30;;;7.90;99.90;;;;;;4970111;28;20117;-81
2024/03/05 09:32:53;;;;;;;33.53;20.45;;;7.80;99.90;;;;;;4969989;28;20394;-81
2024/03/05 09:35:19;;;;;;;39.00;21.67;;;7.80;99.90;;;;;;4970097;28;20034;-81
2024/03/05 09:37:45;;;;;;;33.17;20.38;;;7.70;99.90;;;;;;4970162;28;20031;-81
2024/03/05 09:40:16;;;;;;;36.20;21.02;;;7.70;99.90;;;;;;4971011;28;20038;-81
2024/03/05 09:42:43;;;;;;;36.70;21.10;;;7.70;99.90;;;;;;4971206;28;20026;-81
2024/03/05 09:45:14;;;;;;;36.08;22.30;;;7.70;99.90;;;;;;4970855;28;20027;-81
2024/03/05 09:47:42;;;;;;;35.47;20.52;;;7.70;99.90;;;;;;4969634;28;20027;-81
2024/03/05 09:50:11;;;;;;;37.38;20.98;;;7.70;99.90;;;;;;4985591;28;20030;-81
2024/03/05 09:52:37;;;;;;;36.83;19.95;;;7.70;99.90;;;;;;4971045;28;20050;-81
2024/03/05 09:55:04;;;;;;;38.83;19.75;;;7.70;99.90;;;;;;4985880;28;20062;-81
2024/03/05 09:57:34;;;;;;;39.78;21.40;;;7.60;99.90;;;;;;4971083;28;20027;-81
2024/03/05 10:00:00;;;;;;;41.25;21.52;;;7.50;99.90;;;;;;4969409;28;20352;-81
2024/03/05 10:02:26;;;;;;;34.38;19.83;;;7.50;99.90;;;;;;4969855;28;20129;-80
2024/03/05 10:04:54;;;;;;;31.95;20.35;;;7.50;99.90;;;;;;4969567;28;20026;-81
2024/03/05 10:07:24;;;;;;;34.53;20.70;;;7.40;99.90;;;;;;4969128;28;20118;-80
2024/03/05 10:10:04;;;;;;;34.55;20.48;;;7.40;99.90;;;;;;4969087;28;20031;-80
2024/03/05 10:12:29;;;;;;;36.58;21.30;;;7.40;99.90;;;;;;4985534;28;20505;-81
2024/03/05 10:15:10;;;;;;;39.05;21.17;;;7.40;99.90;;;;;;4970876;28;20023;-80
2024/03/05 10:17:44;;;;;;;37.17;20.27;;;7.50;99.90;;;;;;4970772;28;20078;-81
2024/03/05 10:20:26;;;;;;;34.03;18.65;;;7.50;99.90;;;;;;4968656;28;20129;-81
2024/03/05 10:22:53;;;;;;;34.15;20.30;;;7.50;99.90;;;;;;4969499;28;20505;-80
2024/03/05 10:25:19;;;;;;;36.63;20.48;;;7.50;99.90;;;;;;4970601;28;20023;-81
2024/03/05 10:27:47;;;;;;;36.95;21.52;;;7.50;99.90;;;;;;4969354;28;20030;-81
2024/03/05 10:30:23;;;;;;;34.75;20.20;;;7.50;99.90;;;;;;4968826;28;20022;-81
2024/03/05 10:32:54;;;;;;;34.50;21.55;;;7.50;99.90;;;;;;4970540;28;20474;-80
2024/03/05 10:35:20;;;;;;;33.03;20.58;;;7.50;99.90;;;;;;4985466;28;20031;-80
2024/03/05 10:37:59;;;;;;;37.00;20.27;;;7.60;99.90;;;;;;4969184;28;20041;-80
2024/03/05 10:40:25;;;;;;;37.92;20.33;;;7.60;99.90;;;;;;4970122;28;20550;-80
2024/03/05 10:42:52;;;;;;;40.58;20.35;;;7.60;99.90;;;;;;4969111;28;20062;-80
2024/03/05 10:45:22;;;;;;;38.35;22.13;;;7.60;99.90;;;;;;4969184;28;20319;-80
2024/03/05 10:47:50;;;;;;;31.80;20.63;;;7.60;99.90;;;;;;4970310;28;20031;-80
2024/03/05 10:50:17;;;;;;;34.38;19.55;;;7.70;99.90;;;;;;4985122;28;20448;-80
2024/03/05 10:52:43;;;;;;;29.65;19.65;;;7.70;99.90;;;;;;4969133;28;20121;-80
2024/03/05 10:55:11;;;;;;;45.20;20.95;;;7.70;99.90;;;;;;4970613;28;20023;-80
2024/03/05 10:58:13;;;;;;;38.00;20.33;;;7.60;99.90;;;;;;4985047;28;20023;-80
2024/03/05 11:00:26;;;;;;;33.85;19.90;;;7.70;99.90;;;;;;4969829;28;20110;-80
2024/03/05 11:03:07;;;;;;;41.50;21.58;;;7.70;99.90;;;;;;4984757;28;20126;-80
2024/03/05 11:05:35;;;;;;;;;;;7.70;99.90;;;;;;4970863;28;20030;-80
2024/03/05 11:08:01;;;;;;;37.53;18.90;;;7.70;99.90;;;;;;4970216;28;20413;-80
2024/03/05 11:10:28;;;;;;;33.78;19.92;;;7.70;99.90;;;;;;4968507;28;20486;-80
2024/03/05 11:12:54;;;;;;;35.10;19.77;;;7.60;99.90;;;;;;4968647;28;20497;-79
2024/03/05 11:15:21;;;;;;;37.28;21.63;;;7.70;99.90;;;;;;4970111;28;20319;-79
2024/03/05 11:17:47;;;;;;;35.80;19.80;;;7.60;99.90;;;;;;4970073;28;20027;-79
2024/03/05 11:20:49;;;;;;;41.45;21.05;;;7.60;99.90;;;;;;4970824;28;20034;-79
2024/03/05 11:23:14;;;;;;;36.80;20.10;;;7.60;99.90;;;;;;4973824;28;20350;-79
2024/03/05 11:25:48;;;;;;;30.50;19.50;;;7.70;99.90;;;;;;4976795;28;20449;-79
2024/03/05 11:28:18;;;;;;;39.15;18.73;;;7.70;99.90;;;;;;4973457;28;20482;-79
2024/03/05 11:30:44;;;;;;;33.70;19.45;;;7.70;99.90;;;;;;4972103;28;20026;-80
2024/03/05 11:33:18;;;;;;;35.13;20.13;;;7.60;99.90;;;;;;4974003;28;20454;-79
2024/03/05 11:35:45;;;;;;;38.50;22.20;;;7.60;99.90;;;;;;4972179;28;20030;-79
2024/03/05 11:38:14;;;;;;;38.58;20.60;;;7.60;99.90;;;;;;4974330;28;20026;-79
2024/03/05 11:40:40;;;;;;;37.47;20.02;;;7.60;99.90;;;;;;4974850;28;20038;-79
2024/03/05 11:43:07;;;;;;;33.92;20.02;;;7.60;99.90;;;;;;4972828;28;20023;-79
2024/03/05 11:45:49;;;;;;;37.30;20.63;;;7.60;99.90;;;;;;4971706;28;20059;-79
2024/03/05 11:48:22;;;;;;;34.17;19.88;;;7.60;99.90;;;;;;4988014;28;20027;-79
2024/03/05 11:50:52;;;;;;;37.58;20.45;;;7.50;99.90;;;;;;4971301;28;20023;-79
2024/03/05 11:53:18;;;;;;;33.53;20.35;;;7.60;99.90;;;;;;4971949;28;20018;-79
2024/03/05 11:55:43;;;;;;;33.50;19.52;;;7.60;99.90;;;;;;4972882;28;20034;-79
2024/03/05 11:58:10;;;;;;;36.45;21.08;;;7.60;99.90;;;;;;4987782;28;20033;-79
2024/03/05 12:00:37;;;;;;;33.80;18.83;;;7.70;99.90;;;;;;4972323;28;20030;-79
2024/03/05 12:03:09;;;;;;;31.67;19.05;;;7.70;99.90;;;;;;4972856;28;20019;-79
2024/03/05 12:05:34;;;;;;;35.80;18.98;;;7.70;99.90;;;;;;4971336;28;20110;-79
2024/03/05 12:08:06;;;;;;;32.60;18.30;;;7.80;99.90;;;;;;4971518;28;20118;-79
2024/03/05 12:10:35;;;;;;;39.63;20.65;;;7.80;99.90;;;;;;4972366;28;20042;-79
2024/03/05 12:13:04;;;;;;;32.55;18.48;;;7.80;99.90;;;;;;4972606;28;20468;-79
2024/03/05 12:15:32;;;;;;;38.13;19.33;;;7.80;99.90;;;;;;4971242;28;20405;-79
2024/03/05 12:17:58;;;;;;;29.38;18.83;;;7.80;99.90;;;;;;4972838;28;20027;-79
2024/03/05 12:20:24;;;;;;;34.38;18.55;;;7.90;99.90;;;;;;4972206;28;20038;-79
2024/03/05 12:22:53;;;;;;;33.20;17.45;;;8.00;99.90;;;;;;4972501;28;20371;-79
2024/03/05 12:25:20;;;;;;;27.75;16.50;;;8.00;99.90;;;;;;4971105;28;20073;-79
2024/03/05 12:27:49;;;;;;;30.10;18.55;;;8.10;99.90;;;;;;4987047;28;20077;-79
2024/03/05 12:30:15;;;;;;;27.90;16.42;;;8.10;99.90;;;;;;4986417;28;20294;-79
2024/03/05 12:32:42;;;;;;;33.65;19.30;;;8.20;99.90;;;;;;4971033;28;20515;-79
2024/03/05 12:35:10;;;;;;;26.23;17.65;;;8.30;99.90;;;;;;4972657;28;20055;-79
2024/03/05 12:37:38;;;;;;;23.92;17.17;;;8.30;99.90;;;;;;4972148;28;20031;-79
2024/03/05 12:40:07;;;;;;;35.85;18.55;;;8.40;99.90;;;;;;4970437;28;20034;-79
2024/03/05 12:42:33;;;;;;;30.85;18.40;;;8.50;99.90;;;;;;4970810;28;20022;-80